sensor_id;sensor_type;location;lat;lon;timestamp;pressure;altitude;pressure_sealevel;temperature;humidity
77545;BME280;66672;50.328;7.610;2024-03-23T03:22:11;99107.75;;;10.74;100.00
77545;BME280;66672;50.328;7.610;2024-03-23T03:24:37;99116.13;;;10.43;100.00
77545;BME280;66672;50.328;7.610;2024-03-23T03:27:02;99129.13;;;10.10;100.00
77545;BME280;66672;50.328;7.610;2024-03-23T03:29:28;99137.16;;;9.46;100.00
77545;BME280;66672;50.328;7.610;2024-03-23T03:31:59;99115.22;;;10.34;100.00
77545;BME280;66672;50.328;7.610;2024-03-23T03:34:25;99115.00;;;10.28;100.00
77545;BME280;66672;50.328;7.610;2024-03-23T03:36:50;99100.81;;;10.45;100.00
77545;BME280;66672;50.328;7.610;2024-03-23T03:39:15;99110.41;;;9.55;100.00
77545;BME280;66672;50.328;7.610;2024-03-23T03:41:41;99110.09;;;10.59;100.00
77545;BME280;66672;50.328;7.610;2024-03-23T03:44:06;99120.69;;;9.87;100.00
77545;BME280;66672;50.328;7.610;2024-03-23T03:46:32;99136.56;;;10.07;100.00
77545;BME280;66672;50.328;7.610;2024-03-23T03:48:57;99138.47;;;9.59;100.00
77545;BME280;66672;50.328;7.610;2024-03-23T03:51:22;99124.50;;;10.30;100.00
77545;BME280;66672;50.328;7.610;2024-03-23T03:53:48;99124.31;;;10.59;97.70
77545;BME280;66672;50.328;7.610;2024-03-23T03:56:13;99118.94;;;9.96;95.12
77545;BME280;66672;50.328;7.610;2024-03-23T03:58:38;99117.06;;;9.79;92.33
77545;BME280;66672;50.328;7.610;2024-03-23T04:01:05;99132.22;;;9.78;86.79
77545;BME280;66672;50.328;7.610;2024-03-23T04:03:30;99137.41;;;8.86;80.97
77545;BME280;66672;50.328;7.610;2024-03-23T04:05:55;99111.13;;;18.57;44.87
77545;BME280;66672;50.328;7.610;2024-03-23T04:08:21;99126.41;;;13.36;62.19
77545;BME280;66672;50.328;7.610;2024-03-23T04:10:47;99146.03;;;13.28;60.01
77545;BME280;66672;50.328;7.610;2024-03-23T04:13:13;99144.47;;;14.05;60.45
77545;BME280;66672;50.328;7.610;2024-03-23T04:15:38;99141.69;;;13.27;61.24
77545;BME280;66672;50.328;7.610;2024-03-23T04:18:04;99151.41;;;13.28;61.53
77545;BME280;66672;50.328;7.610;2024-03-23T04:20:29;99165.13;;;12.84;64.36
77545;BME280;66672;50.328;7.610;2024-03-23T04:22:54;99167.81;;;13.25;61.53
77545;BME280;66672;50.328;7.610;2024-03-23T04:25:20;99167.06;;;11.99;63.80
77545;BME280;66672;50.328;7.610;2024-03-23T04:27:45;99171.09;;;13.84;57.38
77545;BME280;66672;50.328;7.610;2024-03-23T04:30:11;99189.94;;;13.19;59.88
77545;BME280;66672;50.328;7.610;2024-03-23T04:32:37;99210.44;;;12.03;62.60
77545;BME280;66672;50.328;7.610;2024-03-23T04:35:03;99211.16;;;11.61;64.40
77545;BME280;66672;50.328;7.610;2024-03-23T04:37:34;99212.88;;;11.62;67.49
77545;BME280;66672;50.328;7.610;2024-03-23T04:40:01;99227.72;;;12.50;62.74
77545;BME280;66672;50.328;7.610;2024-03-23T04:42:27;99226.81;;;12.25;61.39
77545;BME280;66672;50.328;7.610;2024-03-23T04:44:52;99223.03;;;12.52;61.34
77545;BME280;66672;50.328;7.610;2024-03-23T04:47:18;99213.84;;;11.35;65.31
77545;BME280;66672;50.328;7.610;2024-03-23T04:49:43;99213.44;;;11.99;62.70
77545;BME280;66672;50.328;7.610;2024-03-23T04:52:08;99223.69;;;11.34;61.68
77545;BME280;66672;50.328;7.610;2024-03-23T04:54:34;99228.41;;;10.51;64.39
77545;BME280;66672;50.328;7.610;2024-03-23T04:56:59;99216.41;;;11.44;65.18
77545;BME280;66672;50.328;7.610;2024-03-23T04:59:24;99221.88;;;10.08;64.74
77545;BME280;66672;50.328;7.610;2024-03-23T05:01:50;99224.47;;;11.96;62.09
77545;BME280;66672;50.328;7.610;2024-03-23T05:04:15;99223.72;;;9.98;63.94
77545;BME280;66672;50.328;7.610;2024-03-23T05:06:40;99221.13;;;9.79;65.01
77545;BME280;66672;50.328;7.610;2024-03-23T05:09:06;99221.78;;;12.31;60.61
77545;BME280;66672;50.328;7.610;2024-03-23T05:11:32;99220.66;;;11.11;61.63
77545;BME280;66672;50.328;7.610;2024-03-23T05:13:58;99228.22;;;10.35;62.36
77545;BME280;66672;50.328;7.610;2024-03-23T05:16:23;99242.50;;;9.69;64.71
77545;BME280;66672;50.328;7.610;2024-03-23T05:18:48;99253.94;;;9.23;66.95
77545;BME280;66672;50.328;7.610;2024-03-23T05:21:14;99249.00;;;11.04;63.18
77545;BME280;66672;50.328;7.610;2024-03-23T05:23:39;99261.59;;;11.30;61.52
77545;BME280;66672;50.328;7.610;2024-03-23T05:26:04;99248.16;;;11.65;61.61
77545;BME280;66672;50.328;7.610;2024-03-23T05:28:30;99261.75;;;12.24;59.22
77545;BME280;66672;50.328;7.610;2024-03-23T05:30:55;99257.97;;;11.57;61.83
77545;BME280;66672;50.328;7.610;2024-03-23T05:33:22;99263.25;;;12.18;60.21
77545;BME280;66672;50.328;7.610;2024-03-23T05:36:00;99243.84;;;11.72;60.65
77545;BME280;66672;50.328;7.610;2024-03-23T05:38:25;99263.44;;;11.29;62.63
77545;BME280;66672;50.328;7.610;2024-03-23T05:40:58;99271.06;;;9.96;64.98
77545;BME280;66672;50.328;7.610;2024-03-23T05:43:24;99280.94;;;12.37;60.84
77545;BME280;66672;50.328;7.610;2024-03-23T05:45:56;99294.22;;;10.05;64.21
77545;BME280;66672;50.328;7.610;2024-03-23T05:48:22;99289.53;;;10.82;63.29
77545;BME280;66672;50.328;7.610;2024-03-23T05:50:48;99293.22;;;10.81;63.61
77545;BME280;66672;50.328;7.610;2024-03-23T05:53:17;99295.91;;;12.22;59.86
77545;BME280;66672;50.328;7.610;2024-03-23T05:55:43;99308.97;;;11.19;61.50
77545;BME280;66672;50.328;7.610;2024-03-23T05:58:08;99311.53;;;12.61;58.62
77545;BME280;66672;50.328;7.610;2024-03-23T06:00:34;99316.50;;;10.61;61.24
77545;BME280;66672;50.328;7.610;2024-03-23T06:02:59;99309.69;;;11.39;62.21
77545;BME280;66672;50.328;7.610;2024-03-23T06:05:25;99311.94;;;12.48;56.94
77545;BME280;66672;50.328;7.610;2024-03-23T06:07:50;99309.84;;;10.47;63.18
77545;BME280;66672;50.328;7.610;2024-03-23T06:10:15;99296.38;;;12.17;58.89
77545;BME280;66672;50.328;7.610;2024-03-23T06:12:40;99302.16;;;11.61;60.87
77545;BME280;66672;50.328;7.610;2024-03-23T06:15:07;99292.91;;;10.84;61.56
77545;BME280;66672;50.328;7.610;2024-03-23T06:17:38;99312.16;;;11.77;60.02
77545;BME280;66672;50.328;7.610;2024-03-23T06:20:04;99320.97;;;11.15;60.14
77545;BME280;66672;50.328;7.610;2024-03-23T06:22:31;99312.94;;;12.47;57.72
77545;BME280;66672;50.328;7.610;2024-03-23T06:24:56;99312.25;;;11.31;59.78
77545;BME280;66672;50.328;7.610;2024-03-23T06:27:22;99321.44;;;12.68;56.65
77545;BME280;66672;50.328;7.610;2024-03-23T06:29:47;99318.63;;;12.10;58.90
77545;BME280;66672;50.328;7.610;2024-03-23T06:32:12;99315.44;;;11.88;58.34
77545;BME280;66672;50.328;7.610;2024-03-23T06:34:38;99330.00;;;12.38;57.64
77545;BME280;66672;50.328;7.610;2024-03-23T06:37:05;99326.53;;;10.86;59.62
77545;BME280;66672;50.328;7.610;2024-03-23T06:39:31;99327.53;;;10.48;61.19
77545;BME280;66672;50.328;7.610;2024-03-23T06:41:56;99335.38;;;11.32;59.42
77545;BME280;66672;50.328;7.610;2024-03-23T06:44:21;99326.81;;;11.72;56.90
77545;BME280;66672;50.328;7.610;2024-03-23T06:46:47;99341.91;;;11.73;58.08
77545;BME280;66672;50.328;7.610;2024-03-23T06:49:14;99347.81;;;12.21;57.60
77545;BME280;66672;50.328;7.610;2024-03-23T06:51:39;99356.63;;;12.13;56.92
77545;BME280;66672;50.328;7.610;2024-03-23T06:54:05;99367.44;;;12.56;55.51
77545;BME280;66672;50.328;7.610;2024-03-23T06:56:30;99377.91;;;12.67;55.72
77545;BME280;66672;50.328;7.610;2024-03-23T06:58:59;99390.41;;;10.80;58.82
77545;BME280;66672;50.328;7.610;2024-03-23T07:01:24;99385.72;;;12.60;54.63
77545;BME280;66672;50.328;7.610;2024-03-23T07:03:49;99394.88;;;10.61;59.43
77545;BME280;66672;50.328;7.610;2024-03-23T07:06:15;99384.59;;;11.39;56.11
77545;BME280;66672;50.328;7.610;2024-03-23T07:08:40;99370.75;;;11.80;55.89
77545;BME280;66672;50.328;7.610;2024-03-23T07:11:05;99387.84;;;10.88;57.29
77545;BME280;66672;50.328;7.610;2024-03-23T07:13:31;99385.25;;;12.13;57.40
77545;BME280;66672;50.328;7.610;2024-03-23T07:15:56;99370.50;;;12.35;53.78
77545;BME280;66672;50.328;7.610;2024-03-23T07:18:22;99377.66;;;12.86;54.11
77545;BME280;66672;50.328;7.610;2024-03-23T07:20:54;99384.06;;;13.01;55.17
77545;BME280;66672;50.328;7.610;2024-03-23T07:23:21;99378.38;;;12.62;54.21
77545;BME280;66672;50.328;7.610;2024-03-23T07:25:59;99361.03;;;11.96;54.96
77545;BME280;66672;50.328;7.610;2024-03-23T07:28:24;99364.88;;;13.22;53.17
77545;BME280;66672;50.328;7.610;2024-03-23T07:31:07;99364.44;;;12.07;55.63
77545;BME280;66672;50.328;7.610;2024-03-23T07:33:35;99365.50;;;13.16;54.03
77545;BME280;66672;50.328;7.610;2024-03-23T07:36:00;99373.03;;;12.70;54.70
77545;BME280;66672;50.328;7.610;2024-03-23T07:38:28;99370.78;;;13.34;53.96
77545;BME280;66672;50.328;7.610;2024-03-23T07:41:03;99371.00;;;12.64;53.23
77545;BME280;66672;50.328;7.610;2024-03-23T07:43:28;99373.47;;;12.92;54.32
77545;BME280;66672;50.328;7.610;2024-03-23T07:45:54;99379.72;;;13.59;52.90
77545;BME280;66672;50.328;7.610;2024-03-23T07:48:21;99387.56;;;12.94;55.77
77545;BME280;66672;50.328;7.610;2024-03-23T07:53:25;99376.13;;;13.26;54.81
77545;BME280;66672;50.328;7.610;2024-03-23T07:55:55;99391.13;;;13.02;55.41
77545;BME280;66672;50.328;7.610;2024-03-23T07:58:20;99393.44;;;12.63;56.55
77545;BME280;66672;50.328;7.610;2024-03-23T08:00:46;99384.13;;;13.18;54.67
77545;BME280;66672;50.328;7.610;2024-03-23T08:03:11;99395.28;;;13.47;52.86
77545;BME280;66672;50.328;7.610;2024-03-23T08:05:36;99395.78;;;12.32;54.36
77545;BME280;66672;50.328;7.610;2024-03-23T08:08:02;99414.56;;;11.79;55.98
77545;BME280;66672;50.328;7.610;2024-03-23T08:10:27;99395.31;;;11.93;55.72
77545;BME280;66672;50.328;7.610;2024-03-23T08:12:52;99408.84;;;12.35;53.98
77545;BME280;66672;50.328;7.610;2024-03-23T08:15:18;99401.84;;;13.02;53.94
77545;BME280;66672;50.328;7.610;2024-03-23T08:17:43;99403.13;;;12.30;54.21
77545;BME280;66672;50.328;7.610;2024-03-23T08:20:08;99409.47;;;11.85;56.51
77545;BME280;66672;50.328;7.610;2024-03-23T08:22:34;99404.16;;;11.40;55.76
77545;BME280;66672;50.328;7.610;2024-03-23T08:24:59;99417.34;;;11.24;57.00
77545;BME280;66672;50.328;7.610;2024-03-23T08:27:24;99412.66;;;11.26;55.62
77545;BME280;66672;50.328;7.610;2024-03-23T08:29:50;99410.53;;;12.62;52.70
77545;BME280;66672;50.328;7.610;2024-03-23T08:32:15;99403.41;;;12.45;54.01
77545;BME280;66672;50.328;7.610;2024-03-23T08:34:42;99416.38;;;13.26;53.15
77545;BME280;66672;50.328;7.610;2024-03-23T08:37:07;99414.66;;;10.96;55.28
77545;BME280;66672;50.328;7.610;2024-03-23T08:39:32;99392.91;;;13.28;51.31
77545;BME280;66672;50.328;7.610;2024-03-23T08:41:57;99393.69;;;13.20;50.49
77545;BME280;66672;50.328;7.610;2024-03-23T08:44:23;99413.78;;;12.48;51.44
77545;BME280;66672;50.328;7.610;2024-03-23T08:46:48;99400.88;;;13.70;50.02
77545;BME280;66672;50.328;7.610;2024-03-23T08:49:13;99410.69;;;11.91;51.29
77545;BME280;66672;50.328;7.610;2024-03-23T08:51:39;99426.13;;;13.27;50.13
77545;BME280;66672;50.328;7.610;2024-03-23T08:54:04;99420.28;;;12.71;48.79
77545;BME280;66672;50.328;7.610;2024-03-23T08:56:30;99401.03;;;13.69;45.70
77545;BME280;66672;50.328;7.610;2024-03-23T08:58:55;99419.53;;;13.80;46.00
77545;BME280;66672;50.328;7.610;2024-03-23T09:01:20;99415.13;;;13.71;45.26
77545;BME280;66672;50.328;7.610;2024-03-23T09:03:46;99422.16;;;13.13;45.80
77545;BME280;66672;50.328;7.610;2024-03-23T09:06:13;99419.69;;;14.44;44.55
77545;BME280;66672;50.328;7.610;2024-03-23T09:08:39;99421.19;;;14.38;44.15
77545;BME280;66672;50.328;7.610;2024-03-23T09:11:11;99421.91;;;14.07;44.43
77545;BME280;66672;50.328;7.610;2024-03-23T09:13:37;99411.84;;;14.98;44.24
77545;BME280;66672;50.328;7.610;2024-03-23T09:16:03;99415.47;;;14.41;42.84
77545;BME280;66672;50.328;7.610;2024-03-23T09:18:32;99406.56;;;14.40;42.91
77545;BME280;66672;50.328;7.610;2024-03-23T09:20:57;99414.19;;;13.29;42.34
77545;BME280;66672;50.328;7.610;2024-03-23T09:23:23;99401.28;;;14.88;41.37
77545;BME280;66672;50.328;7.610;2024-03-23T09:25:48;99405.34;;;14.84;42.62
77545;BME280;66672;50.328;7.610;2024-03-23T09:28:13;99401.72;;;15.08;42.56
77545;BME280;66672;50.328;7.610;2024-03-23T09:30:38;99397.53;;;13.68;43.64
77545;BME280;66672;50.328;7.610;2024-03-23T09:33:10;99400.38;;;13.67;42.21
77545;BME280;66672;50.328;7.610;2024-03-23T09:35:37;99394.53;;;15.31;40.00
77545;BME280;66672;50.328;7.610;2024-03-23T09:38:03;99404.06;;;14.55;39.95
77545;BME280;66672;50.328;7.610;2024-03-23T09:40:28;99383.03;;;14.67;39.75
77545;BME280;66672;50.328;7.610;2024-03-23T09:42:54;99384.88;;;13.36;41.93
77545;BME280;66672;50.328;7.610;2024-03-23T09:45:23;99394.19;;;14.95;40.07
77545;BME280;66672;50.328;7.610;2024-03-23T09:47:55;99389.25;;;14.59;39.49
77545;BME280;66672;50.328;7.610;2024-03-23T09:50:21;99386.72;;;15.05;39.33
77545;BME280;66672;50.328;7.610;2024-03-23T09:52:46;99391.13;;;14.18;40.20
77545;BME280;66672;50.328;7.610;2024-03-23T09:55:12;99378.38;;;14.28;40.02
77545;BME280;66672;50.328;7.610;2024-03-23T09:57:37;99389.28;;;14.19;41.10
77545;BME280;66672;50.328;7.610;2024-03-23T10:00:03;99396.16;;;14.54;40.49
77545;BME280;66672;50.328;7.610;2024-03-23T10:02:29;99397.38;;;12.77;44.07
77545;BME280;66672;50.328;7.610;2024-03-23T10:04:54;99406.16;;;13.29;42.66
77545;BME280;66672;50.328;7.610;2024-03-23T10:07:20;99398.16;;;13.54;42.05
77545;BME280;66672;50.328;7.610;2024-03-23T10:09:47;99396.97;;;13.48;42.71
77545;BME280;66672;50.328;7.610;2024-03-23T10:12:15;99406.81;;;12.89;43.25
77545;BME280;66672;50.328;7.610;2024-03-23T10:14:40;99396.00;;;14.23;41.98
77545;BME280;66672;50.328;7.610;2024-03-23T10:19:45;99405.59;;;12.49;43.94
77545;BME280;66672;50.328;7.610;2024-03-23T10:22:14;99388.19;;;14.85;41.20
77545;BME280;66672;50.328;7.610;2024-03-23T10:24:40;99390.78;;;13.64;41.46
77545;BME280;66672;50.328;7.610;2024-03-23T10:27:05;99400.22;;;12.84;43.43
77545;BME280;66672;50.328;7.610;2024-03-23T10:29:31;99374.50;;;15.57;41.18
77545;BME280;66672;50.328;7.610;2024-03-23T10:32:10;99391.31;;;13.76;43.38
77545;BME280;66672;50.328;7.610;2024-03-23T10:34:36;99381.84;;;15.09;40.94
77545;BME280;66672;50.328;7.610;2024-03-23T10:37:02;99381.72;;;13.49;42.81
77545;BME280;66672;50.328;7.610;2024-03-23T10:39:31;99374.81;;;14.36;41.97
77545;BME280;66672;50.328;7.610;2024-03-23T10:41:57;99373.38;;;13.84;43.58
77545;BME280;66672;50.328;7.610;2024-03-23T10:44:24;99365.81;;;14.84;40.30
77545;BME280;66672;50.328;7.610;2024-03-23T10:46:51;99378.81;;;13.26;43.87
77545;BME280;66672;50.328;7.610;2024-03-23T10:49:23;99378.69;;;13.52;43.59
77545;BME280;66672;50.328;7.610;2024-03-23T10:51:51;99382.41;;;13.75;42.27
77545;BME280;66672;50.328;7.610;2024-03-23T10:54:16;99378.69;;;13.44;43.65
77545;BME280;66672;50.328;7.610;2024-03-23T10:56:43;99375.06;;;15.21;41.08
77545;BME280;66672;50.328;7.610;2024-03-23T10:59:09;99390.22;;;12.94;45.05
77545;BME280;66672;50.328;7.610;2024-03-23T11:01:35;99389.31;;;14.10;45.86
77545;BME280;66672;50.328;7.610;2024-03-23T11:04:00;99374.50;;;15.57;45.03
77545;BME280;66672;50.328;7.610;2024-03-23T11:06:36;99395.19;;;13.98;49.95
77545;BME280;66672;50.328;7.610;2024-03-23T11:09:01;99377.81;;;16.13;46.18
77545;BME280;66672;50.328;7.610;2024-03-23T11:11:27;99385.44;;;13.80;47.23
77545;BME280;66672;50.328;7.610;2024-03-23T11:13:54;99367.47;;;15.47;45.71
77545;BME280;66672;50.328;7.610;2024-03-23T11:16:24;99364.84;;;16.31;44.40
77545;BME280;66672;50.328;7.610;2024-03-23T11:18:50;99350.56;;;16.08;45.49
77545;BME280;66672;50.328;7.610;2024-03-23T11:21:54;99358.31;;;16.70;42.70
77545;BME280;66672;50.328;7.610;2024-03-23T11:24:20;99351.09;;;16.70;42.44
77545;BME280;66672;50.328;7.610;2024-03-23T11:26:47;99337.81;;;14.62;44.20
77545;BME280;66672;50.328;7.610;2024-03-23T11:29:13;99349.06;;;15.36;45.24
77545;BME280;66672;50.328;7.610;2024-03-23T11:31:46;99355.19;;;15.22;44.36
77545;BME280;66672;50.328;7.610;2024-03-23T11:34:12;99389.47;;;15.59;43.26
77545;BME280;66672;50.328;7.610;2024-03-23T11:36:38;99393.31;;;13.49;48.40
77545;BME280;66672;50.328;7.610;2024-03-23T11:39:15;99421.34;;;13.55;48.64
77545;BME280;66672;50.328;7.610;2024-03-23T11:41:48;99405.28;;;12.87;49.89
77545;BME280;66672;50.328;7.610;2024-03-23T11:44:21;99412.97;;;13.16;49.61
77545;BME280;66672;50.328;7.610;2024-03-23T11:46:47;99402.41;;;12.20;50.60
77545;BME280;66672;50.328;7.610;2024-03-23T11:49:39;99396.72;;;14.88;47.45
77545;BME280;66672;50.328;7.610;2024-03-23T11:52:07;99399.72;;;15.33;47.93
77545;BME280;66672;50.328;7.610;2024-03-23T11:54:33;99392.81;;;14.27;46.93
77545;BME280;66672;50.328;7.610;2024-03-23T11:57:08;99400.53;;;13.49;48.02
77545;BME280;66672;50.328;7.610;2024-03-23T11:59:38;99402.56;;;15.08;44.19
77545;BME280;66672;50.328;7.610;2024-03-23T12:02:09;99423.97;;;12.18;50.48
77545;BME280;66672;50.328;7.610;2024-03-23T12:04:36;99423.13;;;12.96;52.38
77545;BME280;66672;50.328;7.610;2024-03-23T12:07:18;99442.50;;;12.90;54.65
77545;BME280;66672;50.328;7.610;2024-03-23T12:09:44;99446.47;;;12.51;54.26
77545;BME280;66672;50.328;7.610;2024-03-23T12:12:18;99458.44;;;11.23;84.53
77545;BME280;66672;50.328;7.610;2024-03-23T12:17:28;99434.69;;;11.37;59.21
77545;BME280;66672;50.328;7.610;2024-03-23T12:19:54;99433.22;;;13.10;57.00
77545;BME280;66672;50.328;7.610;2024-03-23T12:22:22;99438.97;;;13.74;54.11
77545;BME280;66672;50.328;7.610;2024-03-23T12:24:48;99426.56;;;12.88;54.76
77545;BME280;66672;50.328;7.610;2024-03-23T12:27:14;99409.31;;;12.57;54.83
77545;BME280;66672;50.328;7.610;2024-03-23T12:29:40;99418.44;;;13.06;53.94
77545;BME280;66672;50.328;7.610;2024-03-23T12:32:06;99414.25;;;11.64;54.64
77545;BME280;66672;50.328;7.610;2024-03-23T12:34:32;99420.16;;;12.21;53.46
77545;BME280;66672;50.328;7.610;2024-03-23T12:36:58;99409.25;;;18.11;42.77
77545;BME280;66672;50.328;7.610;2024-03-23T12:39:23;99421.97;;;15.58;44.81
77545;BME280;66672;50.328;7.610;2024-03-23T12:41:49;99414.84;;;15.03;48.53
77545;BME280;66672;50.328;7.610;2024-03-23T12:44:15;99415.31;;;14.51;49.24
77545;BME280;66672;50.328;7.610;2024-03-23T12:46:43;99411.53;;;15.86;46.85
77545;BME280;66672;50.328;7.610;2024-03-23T12:49:08;99404.75;;;13.92;48.71
77545;BME280;66672;50.328;7.610;2024-03-23T12:51:34;99413.34;;;13.21;51.90
77545;BME280;66672;50.328;7.610;2024-03-23T12:53:59;99415.44;;;13.43;49.94
77545;BME280;66672;50.328;7.610;2024-03-23T12:56:25;99401.13;;;12.92;50.19
77545;BME280;66672;50.328;7.610;2024-03-23T12:58:50;99389.59;;;12.66;51.68
77545;BME280;66672;50.328;7.610;2024-03-23T13:01:20;99404.63;;;12.59;51.07
77545;BME280;66672;50.328;7.610;2024-03-23T13:03:49;99409.63;;;12.53;51.56
77545;BME280;66672;50.328;7.610;2024-03-23T13:06:14;99416.25;;;11.80;52.29
77545;BME280;66672;50.328;7.610;2024-03-23T13:08:40;99433.78;;;10.74;55.40
77545;BME280;66672;50.328;7.610;2024-03-23T13:11:06;99426.34;;;11.23;53.23
77545;BME280;66672;50.328;7.610;2024-03-23T13:13:34;99417.50;;;10.57;56.42
77545;BME280;66672;50.328;7.610;2024-03-23T13:15:59;99366.09;;;11.82;50.77
77545;BME280;66672;50.328;7.610;2024-03-23T13:18:24;99348.78;;;11.94;48.08
77545;BME280;66672;50.328;7.610;2024-03-23T13:20:49;99359.97;;;13.18;49.93
77545;BME280;66672;50.328;7.610;2024-03-23T13:23:15;99353.31;;;13.30;49.01
77545;BME280;66672;50.328;7.610;2024-03-23T13:25:40;99366.25;;;13.34;48.70
77545;BME280;66672;50.328;7.610;2024-03-23T13:28:06;99363.97;;;13.05;49.21
77545;BME280;66672;50.328;7.610;2024-03-23T13:30:31;99369.66;;;14.90;45.31
77545;BME280;66672;50.328;7.610;2024-03-23T13:32:56;99352.75;;;15.89;42.61
77545;BME280;66672;50.328;7.610;2024-03-23T13:35:22;99348.63;;;16.16;44.07
77545;BME280;66672;50.328;7.610;2024-03-23T13:37:48;99344.56;;;16.65;40.70
77545;BME280;66672;50.328;7.610;2024-03-23T13:40:13;99343.81;;;16.26;40.09
77545;BME280;66672;50.328;7.610;2024-03-23T13:42:39;99337.34;;;16.80;41.87
77545;BME280;66672;50.328;7.610;2024-03-23T13:45:04;99334.50;;;16.59;41.11
77545;BME280;66672;50.328;7.610;2024-03-23T13:47:30;99323.97;;;17.66;39.00
77545;BME280;66672;50.328;7.610;2024-03-23T13:49:55;99322.59;;;17.12;44.13
77545;BME280;66672;50.328;7.610;2024-03-23T13:52:21;99319.28;;;16.66;38.94
77545;BME280;66672;50.328;7.610;2024-03-23T13:54:51;99306.78;;;16.94;42.85
77545;BME280;66672;50.328;7.610;2024-03-23T13:57:16;99307.00;;;16.78;42.56
77545;BME280;66672;50.328;7.610;2024-03-23T13:59:42;99316.56;;;16.21;44.00
77545;BME280;66672;50.328;7.610;2024-03-23T14:02:07;99318.81;;;16.33;41.93
77545;BME280;66672;50.328;7.610;2024-03-23T14:04:32;99337.03;;;14.29;44.68
77545;BME280;66672;50.328;7.610;2024-03-23T14:06:58;99345.50;;;14.02;50.79
77545;BME280;66672;50.328;7.610;2024-03-23T14:09:23;99340.59;;;14.05;48.85
77545;BME280;66672;50.328;7.610;2024-03-23T14:11:51;99335.38;;;14.36;48.90
77545;BME280;66672;50.328;7.610;2024-03-23T14:14:16;99332.59;;;15.62;50.09
77545;BME280;66672;50.328;7.610;2024-03-23T14:16:42;99340.78;;;13.87;49.54
77545;BME280;66672;50.328;7.610;2024-03-23T14:19:08;99331.28;;;14.40;51.56
77545;BME280;66672;50.328;7.610;2024-03-23T14:21:33;99313.72;;;14.05;54.09
77545;BME280;66672;50.328;7.610;2024-03-23T14:24:02;99328.19;;;13.39;50.62
77545;BME280;66672;50.328;7.610;2024-03-23T14:26:28;99331.94;;;14.59;50.63
77545;BME280;66672;50.328;7.610;2024-03-23T14:28:53;99345.47;;;13.77;49.60
77545;BME280;66672;50.328;7.610;2024-03-23T14:31:18;99334.19;;;14.31;50.19
77545;BME280;66672;50.328;7.610;2024-03-23T14:33:44;99319.63;;;14.73;50.12
77545;BME280;66672;50.328;7.610;2024-03-23T14:36:13;99294.47;;;13.28;51.84
77545;BME280;66672;50.328;7.610;2024-03-23T14:38:39;99300.41;;;14.28;51.72
77545;BME280;66672;50.328;7.610;2024-03-23T14:41:04;99301.47;;;14.19;53.53
77545;BME280;66672;50.328;7.610;2024-03-23T14:43:30;99295.81;;;13.65;48.05
77545;BME280;66672;50.328;7.610;2024-03-23T14:48:31;99300.38;;;14.53;47.22
77545;BME280;66672;50.328;7.610;2024-03-23T14:50:58;99315.75;;;13.30;48.10
77545;BME280;66672;50.328;7.610;2024-03-23T14:53:24;99306.72;;;13.31;46.26
77545;BME280;66672;50.328;7.610;2024-03-23T14:55:50;99320.63;;;13.83;47.12
77545;BME280;66672;50.328;7.610;2024-03-23T14:58:16;99321.16;;;13.63;43.49
77545;BME280;66672;50.328;7.610;2024-03-23T15:00:41;99322.59;;;12.32;46.28
77545;BME280;66672;50.328;7.610;2024-03-23T15:03:06;99327.56;;;12.00;45.47
77545;BME280;66672;50.328;7.610;2024-03-23T15:05:31;99347.47;;;12.50;45.83
77545;BME280;66672;50.328;7.610;2024-03-23T15:07:57;99335.13;;;12.31;48.73
77545;BME280;66672;50.328;7.610;2024-03-23T15:10:23;99327.94;;;13.08;46.86
77545;BME280;66672;50.328;7.610;2024-03-23T15:12:48;99320.66;;;11.36;48.83
77545;BME280;66672;50.328;7.610;2024-03-23T15:15:14;99322.72;;;11.07;48.92
77545;BME280;66672;50.328;7.610;2024-03-23T15:17:40;99310.25;;;13.40;47.32
77545;BME280;66672;50.328;7.610;2024-03-23T15:20:10;99299.66;;;13.30;46.30
77545;BME280;66672;50.328;7.610;2024-03-23T15:22:36;99308.75;;;12.10;45.78
77545;BME280;66672;50.328;7.610;2024-03-23T15:25:02;99296.13;;;12.71;47.34
77545;BME280;66672;50.328;7.610;2024-03-23T15:27:27;99295.56;;;14.32;44.70
77545;BME280;66672;50.328;7.610;2024-03-23T15:29:52;99288.50;;;14.31;44.90
77545;BME280;66672;50.328;7.610;2024-03-23T15:32:18;99283.59;;;15.59;42.89
77545;BME280;66672;50.328;7.610;2024-03-23T15:34:43;99309.06;;;12.84;44.41
77545;BME280;66672;50.328;7.610;2024-03-23T15:37:08;99296.00;;;14.60;41.93
77545;BME280;66672;50.328;7.610;2024-03-23T15:39:34;99302.41;;;12.53;44.22
77545;BME280;66672;50.328;7.610;2024-03-23T15:41:59;99308.16;;;13.17;44.12
77545;BME280;66672;50.328;7.610;2024-03-23T15:44:25;99309.69;;;12.69;46.51
77545;BME280;66672;50.328;7.610;2024-03-23T15:46:50;99304.47;;;14.16;43.77
77545;BME280;66672;50.328;7.610;2024-03-23T15:49:15;99305.44;;;13.01;45.12
77545;BME280;66672;50.328;7.610;2024-03-23T15:51:40;99300.53;;;12.38;45.78
77545;BME280;66672;50.328;7.610;2024-03-23T15:54:09;99304.31;;;12.61;46.97
77545;BME280;66672;50.328;7.610;2024-03-23T15:56:34;99309.59;;;11.31;46.89
77545;BME280;66672;50.328;7.610;2024-03-23T15:59:00;99288.06;;;14.03;44.24
77545;BME280;66672;50.328;7.610;2024-03-23T16:01:31;99294.25;;;13.14;44.63
77545;BME280;66672;50.328;7.610;2024-03-23T16:03:58;99292.53;;;12.96;45.98
77545;BME280;66672;50.328;7.610;2024-03-23T16:06:23;99279.25;;;12.87;46.11
77545;BME280;66672;50.328;7.610;2024-03-23T16:08:49;99284.03;;;14.93;42.46
77545;BME280;66672;50.328;7.610;2024-03-23T16:11:14;99378.13;;;12.90;45.07
77545;BME280;66672;50.328;7.610;2024-03-23T16:13:39;99407.00;;;12.10;56.84
77545;BME280;66672;50.328;7.610;2024-03-23T16:16:06;99418.13;;;11.34;63.13
77545;BME280;66672;50.328;7.610;2024-03-23T16:18:36;99416.47;;;9.53;64.06
77545;BME280;66672;50.328;7.610;2024-03-23T16:21:03;99404.44;;;11.37;64.60
77545;BME280;66672;50.328;7.610;2024-03-23T16:23:29;99408.47;;;8.33;61.49
77545;BME280;66672;50.328;7.610;2024-03-23T16:25:55;99400.16;;;10.14;64.78
77545;BME280;66672;50.328;7.610;2024-03-23T16:28:25;99381.19;;;10.08;62.27